createdAt,value
2019-03-23T00:00:16.100Z,4.20
2019-03-23T00:02:55.184Z,4.20
2019-03-23T00:05:33.316Z,4.30
2019-03-23T00:08:10.995Z,4.30
2019-03-23T00:10:49.361Z,4.30
2019-03-23T00:13:27.440Z,4.40
2019-03-23T00:16:05.163Z,4.50
2019-03-23T00:18:43.396Z,4.60
2019-03-23T00:21:21.643Z,4.60
2019-03-23T00:23:59.644Z,4.60
2019-03-23T00:26:38.122Z,4.60
2019-03-23T00:29:16.286Z,4.70
2019-03-23T00:31:54.734Z,4.80
2019-03-23T00:34:32.979Z,4.90
2019-03-23T00:37:10.949Z,4.90
2019-03-23T00:39:49.315Z,5.00
2019-03-23T00:42:27.101Z,5.00
2019-03-23T00:45:05.615Z,5.10
2019-03-23T00:47:43.443Z,5.10
2019-03-23T00:50:21.122Z,5.10
2019-03-23T00:52:59.105Z,5.10
2019-03-23T00:55:36.779Z,5.20
2019-03-23T00:58:14.619Z,5.20
2019-03-23T01:00:52.643Z,5.10
2019-03-23T01:03:30.890Z,5.00
2019-03-23T01:06:09.607Z,5.00
2019-03-23T01:08:47.396Z,5.00
2019-03-23T01:11:25.006Z,5.00
2019-03-23T01:14:02.974Z,4.90
2019-03-23T01:16:40.715Z,4.90
2019-03-23T01:19:18.469Z,4.90
2019-03-23T01:21:56.341Z,4.90
2019-03-23T01:24:34.515Z,4.80
2019-03-23T01:27:12.347Z,4.70
2019-03-23T01:29:50.216Z,4.60
2019-03-23T01:32:27.846Z,4.60
2019-03-23T01:35:06.130Z,4.50
2019-03-23T01:37:43.829Z,4.50
2019-03-23T01:40:21.839Z,4.50
2019-03-23T01:43:00.540Z,4.50
2019-03-23T01:45:38.252Z,4.50
2019-03-23T01:48:16.350Z,4.50
2019-03-23T01:50:54.069Z,4.50
2019-03-23T01:53:31.730Z,4.50
2019-03-23T01:56:09.336Z,4.50
2019-03-23T01:58:47.110Z,4.50
2019-03-23T02:01:24.844Z,4.50
2019-03-23T02:04:02.656Z,4.40
2019-03-23T02:06:40.393Z,4.40
2019-03-23T02:09:18.198Z,4.40
2019-03-23T02:11:55.907Z,4.40
2019-03-23T02:14:34.284Z,4.40
2019-03-23T02:17:12.371Z,4.40
2019-03-23T02:19:50.111Z,4.30
2019-03-23T02:22:27.897Z,4.40
2019-03-23T02:25:05.897Z,4.50
2019-03-23T02:27:43.673Z,4.60
2019-03-23T02:30:21.434Z,4.70
2019-03-23T02:32:59.350Z,4.70
2019-03-23T02:35:37.081Z,4.70
2019-03-23T02:38:14.750Z,4.70
2019-03-23T02:40:52.507Z,4.60
2019-03-23T02:43:30.675Z,4.60
2019-03-23T02:46:08.454Z,4.50
2019-03-23T02:48:46.629Z,4.60
2019-03-23T02:51:24.358Z,4.60
2019-03-23T02:54:02.181Z,4.60
2019-03-23T02:56:39.950Z,4.60
2019-03-23T02:59:17.620Z,4.60
2019-03-23T03:01:55.352Z,4.70
2019-03-23T03:04:33.136Z,4.70
2019-03-23T03:07:11.283Z,4.70
2019-03-23T03:09:49.506Z,4.70
2019-03-23T03:12:27.239Z,4.80
2019-03-23T03:15:06.014Z,4.80
2019-03-23T03:17:43.777Z,4.90
2019-03-23T03:20:21.543Z,5.00
2019-03-23T03:22:59.382Z,5.00
2019-03-23T03:25:37.468Z,5.00
2019-03-23T03:28:15.348Z,5.00
2019-03-23T03:30:53.571Z,5.00
2019-03-23T03:33:31.411Z,5.10
2019-03-23T03:36:09.511Z,5.10
2019-03-23T03:38:47.119Z,5.10
2019-03-23T03:41:24.803Z,5.10
2019-03-23T03:44:03.135Z,5.10
2019-03-23T03:46:40.991Z,5.20
2019-03-23T03:49:19.189Z,5.20
2019-03-23T03:51:57.863Z,5.20
2019-03-23T03:54:35.753Z,5.30
2019-03-23T03:57:13.548Z,5.30
2019-03-23T03:59:51.840Z,5.30
2019-03-23T04:02:29.598Z,5.40
2019-03-23T04:05:08.555Z,5.50
2019-03-23T04:07:46.675Z,5.50
2019-03-23T04:10:24.550Z,5.50
2019-03-23T04:13:03.143Z,5.60
2019-03-23T04:15:41.387Z,5.60
2019-03-23T04:18:19.696Z,5.60
2019-03-23T04:20:57.517Z,5.70
2019-03-23T04:23:36.271Z,5.70
2019-03-23T04:26:13.897Z,5.70
2019-03-23T04:28:51.561Z,5.60
2019-03-23T04:31:30.150Z,5.70
2019-03-23T04:34:08.030Z,5.70
2019-03-23T04:36:45.922Z,5.80
2019-03-23T04:39:23.786Z,5.90
2019-03-23T04:42:02.039Z,6.10
2019-03-23T04:44:40.005Z,6.50
2019-03-23T04:47:17.640Z,6.80
2019-03-23T04:49:55.912Z,7.00
2019-03-23T04:52:34.120Z,7.30
2019-03-23T04:55:12.725Z,7.60
2019-03-23T04:57:50.956Z,7.80
2019-03-23T05:00:29.220Z,8.00
2019-03-23T05:03:07.446Z,8.10
2019-03-23T05:05:45.244Z,8.10
2019-03-23T05:08:32.878Z,8.20
2019-03-23T05:11:03.493Z,8.20
2019-03-23T05:13:41.377Z,8.30
2019-03-23T05:16:19.706Z,8.20
2019-03-23T05:18:57.560Z,8.20
2019-03-23T05:21:35.204Z,8.20
2019-03-23T05:24:13.918Z,8.20
2019-03-23T05:26:51.786Z,8.10
2019-03-23T05:29:29.460Z,8.10
2019-03-23T05:32:07.542Z,8.10
2019-03-23T05:34:45.307Z,8.10
2019-03-23T05:37:23.192Z,8.10
2019-03-23T05:40:01.081Z,8.20
2019-03-23T05:42:39.830Z,8.20
2019-03-23T05:45:18.472Z,8.20
2019-03-23T05:47:56.675Z,8.20
2019-03-23T05:50:34.628Z,8.30
2019-03-23T05:53:12.750Z,8.30
2019-03-23T05:55:50.653Z,8.40
2019-03-23T05:58:28.861Z,8.40
2019-03-23T06:01:06.581Z,8.50
2019-03-23T06:03:44.549Z,8.50
2019-03-23T06:06:22.498Z,8.60
2019-03-23T06:09:00.423Z,8.60
2019-03-23T06:11:38.645Z,8.70
2019-03-23T06:14:16.671Z,8.70
2019-03-23T06:16:54.883Z,8.70
2019-03-23T06:19:32.760Z,8.80
2019-03-23T06:22:10.929Z,8.80
2019-03-23T06:24:48.568Z,8.90
2019-03-23T06:27:26.905Z,8.90
2019-03-23T06:30:05.448Z,8.90
2019-03-23T06:32:43.147Z,9.00
2019-03-23T06:35:20.851Z,9.00
2019-03-23T06:37:59.149Z,9.00
2019-03-23T06:40:37.471Z,9.10
2019-03-23T06:43:15.096Z,9.20
2019-03-23T06:45:53.057Z,9.30
2019-03-23T06:48:31.334Z,9.40
2019-03-23T06:51:09.281Z,9.50
2019-03-23T06:53:47.205Z,9.50
2019-03-23T06:56:25.191Z,9.60
2019-03-23T06:59:03.083Z,9.60
2019-03-23T07:01:40.799Z,9.70
2019-03-23T07:04:19.087Z,9.80
2019-03-23T07:06:57.692Z,9.70
2019-03-23T07:09:35.616Z,9.80
2019-03-23T07:12:13.806Z,9.90
2019-03-23T07:14:52.022Z,9.90
2019-03-23T07:17:29.990Z,9.90
2019-03-23T07:20:09.612Z,10.00
2019-03-23T07:22:47.565Z,10.20
2019-03-23T07:25:25.308Z,10.50
2019-03-23T07:28:02.980Z,10.80
2019-03-23T07:30:40.932Z,11.10
2019-03-23T07:33:18.716Z,11.20
2019-03-23T07:35:56.987Z,11.90
2019-03-23T07:38:34.629Z,12.40
2019-03-23T07:41:12.539Z,13.70
2019-03-23T07:43:50.387Z,15.20
2019-03-23T07:46:28.661Z,15.90
2019-03-23T07:49:06.555Z,15.60
2019-03-23T07:51:44.487Z,15.50
2019-03-23T07:54:22.266Z,14.50
2019-03-23T07:57:00.048Z,14.20
2019-03-23T07:59:37.903Z,15.10
2019-03-23T08:02:15.997Z,15.90
2019-03-23T08:04:54.281Z,16.20
2019-03-23T08:07:32.458Z,17.80
2019-03-23T08:10:11.191Z,17.70
2019-03-23T08:12:48.965Z,17.60
2019-03-23T08:15:26.988Z,17.60
2019-03-23T08:18:05.074Z,18.50
2019-03-23T08:20:43.049Z,19.00
2019-03-23T08:23:20.845Z,18.90
2019-03-23T08:25:58.526Z,19.20
2019-03-23T08:28:36.821Z,19.00
2019-03-23T08:31:14.657Z,19.50
2019-03-23T08:33:52.449Z,20.10
2019-03-23T08:36:30.877Z,20.20
2019-03-23T08:39:09.090Z,20.80
2019-03-23T08:41:47.269Z,21.10
2019-03-23T08:44:25.274Z,21.80
2019-03-23T08:47:03.312Z,21.80
2019-03-23T08:49:41.106Z,21.90
2019-03-23T08:52:19.695Z,21.10
2019-03-23T08:54:57.515Z,20.90
2019-03-23T08:57:36.367Z,20.90
2019-03-23T09:00:14.211Z,21.50
2019-03-23T09:02:51.930Z,22.70
2019-03-23T09:05:29.711Z,23.60
2019-03-23T09:08:07.448Z,23.70
2019-03-23T09:10:45.255Z,23.60
2019-03-23T09:13:23.029Z,23.10
2019-03-23T09:16:00.734Z,23.00
2019-03-23T09:18:38.394Z,24.00
2019-03-23T09:21:16.272Z,24.30
2019-03-23T09:23:54.905Z,23.30
2019-03-23T09:26:32.830Z,23.90
2019-03-23T09:29:11.933Z,23.50
2019-03-23T09:31:49.639Z,24.20
2019-03-23T09:34:27.537Z,24.80
2019-03-23T09:37:05.273Z,24.50
2019-03-23T09:39:44.084Z,25.30
2019-03-23T09:42:22.332Z,25.10
2019-03-23T09:45:00.030Z,25.10
2019-03-23T09:47:38.341Z,25.80
2019-03-23T09:50:16.087Z,26.90
2019-03-23T09:52:53.823Z,27.70
2019-03-23T09:55:32.100Z,26.10
2019-03-23T09:58:10.345Z,25.90
2019-03-23T10:00:48.204Z,24.50
2019-03-23T10:03:26.477Z,24.30
2019-03-23T10:06:05.988Z,24.10
2019-03-23T10:08:46.427Z,24.00
2019-03-23T10:11:25.315Z,23.70
2019-03-23T10:14:03.273Z,24.10
2019-03-23T10:16:41.518Z,24.90
2019-03-23T10:19:19.744Z,24.50
2019-03-23T10:21:57.611Z,24.10
2019-03-23T10:24:35.493Z,23.80
2019-03-23T10:27:13.340Z,24.80
2019-03-23T10:29:51.053Z,24.50
2019-03-23T10:32:29.070Z,24.30
2019-03-23T10:35:07.814Z,24.80
2019-03-23T10:37:46.449Z,24.90
2019-03-23T10:40:31.898Z,24.60
2019-03-23T10:43:03.768Z,24.50
2019-03-23T10:45:44.407Z,23.90
2019-03-23T10:48:21.134Z,23.80
2019-03-23T10:50:59.337Z,24.60
2019-03-23T10:53:37.096Z,24.80
2019-03-23T10:56:15.230Z,25.10
2019-03-23T10:58:52.974Z,25.00
2019-03-23T11:01:30.644Z,23.50
2019-03-23T11:04:08.524Z,23.10
2019-03-23T11:06:46.743Z,23.40
2019-03-23T11:09:25.079Z,23.90
2019-03-23T11:12:02.928Z,24.10
2019-03-23T11:14:40.699Z,24.70
2019-03-23T11:17:18.549Z,24.90
2019-03-23T11:19:58.391Z,24.90
2019-03-23T11:22:35.502Z,25.10
2019-03-23T11:25:13.744Z,24.60
2019-03-23T11:27:51.526Z,24.20
2019-03-23T11:30:29.847Z,24.00
2019-03-23T11:33:07.488Z,23.70
2019-03-23T11:35:45.169Z,23.20
2019-03-23T11:38:22.910Z,23.30
2019-03-23T11:41:01.171Z,23.70
2019-03-23T11:43:40.115Z,23.90
2019-03-23T11:46:17.936Z,23.70
2019-03-23T11:48:55.801Z,23.50
2019-03-23T11:51:33.890Z,22.80
2019-03-23T11:54:12.801Z,22.50
2019-03-23T11:56:51.889Z,22.50
2019-03-23T11:59:29.778Z,22.90
2019-03-23T12:02:07.555Z,23.00
2019-03-23T12:04:45.439Z,23.10
2019-03-23T12:07:23.222Z,23.30
2019-03-23T12:10:00.937Z,22.30
2019-03-23T12:12:38.842Z,21.60
2019-03-23T12:15:16.715Z,21.10
2019-03-23T12:17:54.450Z,20.30
2019-03-23T12:20:32.394Z,20.90
2019-03-23T12:23:10.326Z,21.20
2019-03-23T12:25:48.188Z,21.30
2019-03-23T12:28:26.039Z,21.30
2019-03-23T12:31:04.328Z,21.40
2019-03-23T12:33:42.618Z,21.60
2019-03-23T12:36:20.767Z,21.50
2019-03-23T12:38:58.616Z,21.50
2019-03-23T12:41:36.934Z,21.70
2019-03-23T12:44:14.572Z,21.60
2019-03-23T12:46:52.306Z,22.00
2019-03-23T12:49:30.146Z,22.50
2019-03-23T12:52:09.260Z,22.30
2019-03-23T12:54:47.177Z,22.20
2019-03-23T12:57:25.094Z,22.10
2019-03-23T13:00:03.441Z,22.50
2019-03-23T13:02:41.406Z,22.30
2019-03-23T13:05:19.071Z,21.60
2019-03-23T13:07:58.056Z,20.40
2019-03-23T13:10:35.896Z,19.80
2019-03-23T13:13:13.792Z,19.40
2019-03-23T13:15:51.648Z,19.00
2019-03-23T13:18:29.305Z,19.00
2019-03-23T13:21:07.152Z,18.80
2019-03-23T13:23:45.857Z,19.40
2019-03-23T13:26:23.495Z,19.80
2019-03-23T13:29:01.409Z,20.10
2019-03-23T13:31:39.243Z,20.40
2019-03-23T13:34:17.649Z,20.70
2019-03-23T13:36:55.531Z,20.40
2019-03-23T13:39:34.317Z,20.20
2019-03-23T13:42:12.517Z,19.80
2019-03-23T13:44:50.525Z,19.80
2019-03-23T13:47:28.167Z,19.70
2019-03-23T13:50:06.797Z,19.50
2019-03-23T13:52:44.456Z,19.50
2019-03-23T13:55:27.568Z,19.40
2019-03-23T13:58:15.295Z,19.20
2019-03-23T14:00:53.167Z,19.00
2019-03-23T14:03:31.079Z,17.80
2019-03-23T14:06:08.997Z,15.80
2019-03-23T14:08:46.899Z,14.10
2019-03-23T14:11:25.077Z,13.20
2019-03-23T14:14:03.060Z,13.00
2019-03-23T14:16:41.414Z,12.80
2019-03-23T14:19:19.378Z,12.70
2019-03-23T14:21:57.701Z,12.50
2019-03-23T14:24:35.477Z,12.50
2019-03-23T14:27:13.180Z,12.60
2019-03-23T14:29:51.041Z,12.80
2019-03-23T14:32:28.997Z,12.80
2019-03-23T14:35:07.236Z,12.90
2019-03-23T14:37:45.206Z,13.10
2019-03-23T14:40:22.972Z,13.30
2019-03-23T14:43:01.831Z,13.50
2019-03-23T14:45:40.194Z,13.40
2019-03-23T14:48:18.000Z,13.30
2019-03-23T14:50:56.251Z,13.30
2019-03-23T14:53:34.044Z,13.30
2019-03-23T14:56:12.737Z,13.20
2019-03-23T14:58:50.663Z,13.20
2019-03-23T15:01:28.515Z,13.30
2019-03-23T15:04:06.374Z,13.40
2019-03-23T15:06:44.077Z,13.40
2019-03-23T15:09:21.738Z,13.30
2019-03-23T15:12:00.689Z,13.10
2019-03-23T15:14:38.968Z,13.00
2019-03-23T15:17:16.610Z,12.70
2019-03-23T15:19:54.650Z,12.50
2019-03-23T15:22:32.504Z,12.40
2019-03-23T15:25:10.491Z,12.40
2019-03-23T15:27:48.528Z,12.50
2019-03-23T15:30:26.444Z,12.50
2019-03-23T15:33:04.261Z,12.40
2019-03-23T15:35:42.212Z,12.30
2019-03-23T15:38:20.027Z,12.30
2019-03-23T15:40:57.793Z,12.20
2019-03-23T15:43:35.657Z,12.20
2019-03-23T15:46:13.539Z,12.10
2019-03-23T15:48:51.294Z,12.20
2019-03-23T15:51:30.227Z,12.10
2019-03-23T15:54:07.977Z,12.00
2019-03-23T15:56:45.694Z,11.80
2019-03-23T15:59:23.343Z,11.60
2019-03-23T16:02:01.210Z,11.40
2019-03-23T16:04:39.273Z,11.30
2019-03-23T16:07:17.212Z,11.20
2019-03-23T16:09:55.122Z,11.10
2019-03-23T16:12:35.271Z,11.10
2019-03-23T16:15:13.234Z,11.00
2019-03-23T16:17:50.982Z,10.90
2019-03-23T16:20:29.076Z,10.80
2019-03-23T16:23:07.798Z,10.60
2019-03-23T16:25:46.876Z,10.60
2019-03-23T16:28:26.330Z,10.50
2019-03-23T16:31:04.563Z,10.50
2019-03-23T16:33:42.800Z,10.40
2019-03-23T16:36:20.652Z,10.40
2019-03-23T16:38:59.153Z,10.30
2019-03-23T16:41:37.118Z,10.30
2019-03-23T16:44:43.923Z,10.20
2019-03-23T16:48:13.685Z,10.30
2019-03-23T16:50:59.159Z,10.20
2019-03-23T16:53:36.857Z,10.10
2019-03-23T16:56:14.537Z,10.10
2019-03-23T16:58:52.552Z,10.00
2019-03-23T17:01:30.514Z,10.00
2019-03-23T17:04:08.841Z,9.90
2019-03-23T17:06:47.110Z,9.80
2019-03-23T17:09:24.898Z,9.80
2019-03-23T17:12:02.674Z,9.80
2019-03-23T17:14:40.611Z,9.80
2019-03-23T17:17:18.794Z,9.70
2019-03-23T17:19:56.643Z,9.70
2019-03-23T17:22:34.879Z,9.60
2019-03-23T17:25:12.899Z,9.60
2019-03-23T17:27:51.138Z,9.60
2019-03-23T17:30:29.064Z,9.50
2019-03-23T17:33:08.944Z,9.40
2019-03-23T17:35:46.907Z,9.30
2019-03-23T17:38:24.713Z,9.20
2019-03-23T17:41:02.637Z,9.00
2019-03-23T17:43:41.153Z,9.00
2019-03-23T17:46:18.952Z,8.90
2019-03-23T17:48:56.810Z,8.80
2019-03-23T17:51:35.400Z,8.60
2019-03-23T17:54:13.677Z,8.50
2019-03-23T17:56:51.712Z,8.50
2019-03-23T17:59:29.458Z,8.50
2019-03-23T18:02:07.883Z,8.50
2019-03-23T18:04:46.539Z,8.40
2019-03-23T18:07:24.520Z,8.30
2019-03-23T18:10:02.659Z,8.20
2019-03-23T18:12:40.910Z,8.10
2019-03-23T18:15:19.564Z,8.00
2019-03-23T18:17:57.466Z,7.90
2019-03-23T18:20:35.694Z,7.90
2019-03-23T18:23:15.697Z,7.90
2019-03-23T18:25:52.886Z,7.80
2019-03-23T18:28:30.664Z,7.80
2019-03-23T18:31:08.535Z,7.80
2019-03-23T18:33:46.488Z,7.80
2019-03-23T18:36:24.512Z,7.70
2019-03-23T18:39:02.397Z,7.60
2019-03-23T18:41:41.787Z,7.60
2019-03-23T18:44:19.637Z,7.60
2019-03-23T18:46:57.434Z,7.50
2019-03-23T18:49:35.295Z,7.50
2019-03-23T18:52:13.524Z,7.50
2019-03-23T18:54:52.034Z,7.50
2019-03-23T18:57:30.138Z,7.50
2019-03-23T19:00:08.385Z,7.50
2019-03-23T19:02:46.620Z,7.50
2019-03-23T19:05:24.622Z,7.50
2019-03-23T19:08:02.446Z,7.50
2019-03-23T19:10:40.657Z,7.40
2019-03-23T19:13:18.935Z,7.40
2019-03-23T19:15:56.833Z,7.40
2019-03-23T19:18:34.577Z,7.40
2019-03-23T19:21:12.344Z,7.40
2019-03-23T19:23:50.188Z,7.40
2019-03-23T19:26:27.893Z,7.40
2019-03-23T19:29:06.718Z,7.50
2019-03-23T19:31:44.745Z,7.50
2019-03-23T19:34:22.573Z,7.50
2019-03-23T19:37:00.346Z,7.50
2019-03-23T19:39:39.124Z,7.50
2019-03-23T19:42:16.954Z,7.50
2019-03-23T19:44:54.729Z,7.50
2019-03-23T19:47:32.395Z,7.50
2019-03-23T19:50:10.666Z,7.50
2019-03-23T19:52:48.448Z,7.50
2019-03-23T19:55:26.164Z,7.50
2019-03-23T19:58:04.421Z,7.50
2019-03-23T20:00:42.609Z,7.50
2019-03-23T20:03:21.564Z,7.50
2019-03-23T20:05:59.722Z,7.50
2019-03-23T20:08:37.947Z,7.40
2019-03-23T20:11:15.702Z,7.40
2019-03-23T20:13:58.637Z,7.30
2019-03-23T20:16:33.291Z,7.30
2019-03-23T20:19:11.065Z,7.40
2019-03-23T20:21:48.834Z,7.30
2019-03-23T20:24:26.586Z,7.30
2019-03-23T20:27:04.526Z,7.30
2019-03-23T20:29:42.378Z,7.30
2019-03-23T20:32:20.278Z,7.30
2019-03-23T20:34:58.839Z,7.30
2019-03-23T20:37:36.989Z,7.20
2019-03-23T20:40:15.311Z,7.20
2019-03-23T20:42:53.159Z,7.20
2019-03-23T20:45:32.167Z,7.20
2019-03-23T20:48:09.974Z,7.20
2019-03-23T20:50:47.859Z,7.20
2019-03-23T20:53:25.749Z,7.20
2019-03-23T20:56:03.556Z,7.20
2019-03-23T20:58:41.408Z,7.20
2019-03-23T21:01:19.136Z,7.20
2019-03-23T21:03:57.379Z,7.20
2019-03-23T21:06:35.127Z,7.20
2019-03-23T21:09:13.243Z,7.20
2019-03-23T21:11:51.011Z,7.10
2019-03-23T21:14:28.731Z,7.10
2019-03-23T21:17:06.864Z,7.00
2019-03-23T21:19:44.948Z,7.10
2019-03-23T21:22:22.956Z,7.00
2019-03-23T21:25:01.002Z,7.00
2019-03-23T21:27:39.967Z,7.00
2019-03-23T21:30:20.915Z,7.00
2019-03-23T21:32:58.792Z,7.00
2019-03-23T21:35:37.016Z,7.00
2019-03-23T21:38:15.024Z,6.90
2019-03-23T21:40:52.789Z,6.90
2019-03-23T21:43:31.019Z,6.90
2019-03-23T21:46:08.840Z,6.90
2019-03-23T21:48:47.080Z,6.90
2019-03-23T21:51:24.833Z,6.80
2019-03-23T21:54:02.597Z,6.80
2019-03-23T21:56:40.370Z,6.80
2019-03-23T21:59:18.040Z,6.80
2019-03-23T22:01:55.912Z,6.80
2019-03-23T22:04:33.743Z,6.70
2019-03-23T22:07:11.622Z,6.70
2019-03-23T22:09:49.479Z,6.60
2019-03-23T22:12:27.099Z,6.60
2019-03-23T22:15:05.614Z,6.60
2019-03-23T22:17:43.543Z,6.60
2019-03-23T22:20:21.332Z,6.60
2019-03-23T22:22:59.260Z,6.50
2019-03-23T22:25:37.492Z,6.40
2019-03-23T22:28:15.697Z,6.40
2019-03-23T22:30:53.563Z,6.40
2019-03-23T22:33:31.293Z,6.30
2019-03-23T22:36:09.402Z,6.30
2019-03-23T22:38:47.126Z,6.30
2019-03-23T22:41:25.191Z,6.20
2019-03-23T22:44:02.933Z,6.20
2019-03-23T22:46:41.179Z,6.20
2019-03-23T22:49:18.999Z,6.20
2019-03-23T22:51:56.768Z,6.20
2019-03-23T22:54:34.665Z,6.10
2019-03-23T22:57:13.541Z,6.10
2019-03-23T22:59:51.161Z,6.10
2019-03-23T23:02:28.798Z,6.10
2019-03-23T23:05:07.619Z,6.00
2019-03-23T23:07:45.559Z,6.00
2019-03-23T23:10:24.345Z,6.00
2019-03-23T23:13:02.340Z,5.90
2019-03-23T23:15:41.271Z,5.90
2019-03-23T23:18:18.936Z,5.90
2019-03-23T23:20:57.071Z,5.90
2019-03-23T23:23:35.095Z,5.90
2019-03-23T23:26:12.904Z,5.80
2019-03-23T23:28:51.104Z,5.80
2019-03-23T23:31:29.036Z,5.80
2019-03-23T23:34:06.979Z,5.80
2019-03-23T23:36:45.216Z,5.70
2019-03-23T23:39:23.623Z,5.70
2019-03-23T23:42:01.484Z,5.70
2019-03-23T23:44:39.927Z,5.70
2019-03-23T23:47:18.058Z,5.70
2019-03-23T23:49:55.744Z,5.60
2019-03-23T23:52:33.628Z,5.60
2019-03-23T23:55:12.048Z,5.60
2019-03-23T23:57:49.913Z,5.60
